Duluth, Minnesota
Current Conditions -  °F | °C
As of 4:06 AM on Friday 31 Oct 2014 (Local Time) from KDLH Reporting Station
Overcast Overcast  
Wind Chill: -8°   Ceiling: 2900
Heat Index: -2°   Visibility: 10mi
Dew Point: -9°   Wind: 14mph
Humidity: 61%   Direction: 10°N
Pressure: 30.43"   Gusts: 24mph
Location:  46.79°N, 92.09°W
Report Text: KDLH 310906Z 01012G21KT 10SM BKN029 OVC034 M02/M09 A3043 RMK AO2 T10221089 $
Loading
Personal Weather Stations






























Interactive Weather Map New forecast layout! Learn more

10-Day Weather Forecast

Advertisements
Track Severe Weather on mobile